This is the latest recevied weather packets stored in our database for station/object N8DMH-13. If no packets are shown the sender has not sent any weather packets the latest 10 day(s).
| Time | Temp. | Humidity | Pressure | Rain* | Wind** | Luminosity | Snow |
|---|---|---|---|---|---|---|---|
| 1787506673 | 18.33° C | 69% | 1013.8 hPa | 0 mm | - | - | - |
| 1787506373 | 18.33° C | 71% | 1013.8 hPa | 0 mm | - | - | - |
| 1787506043 | 18.33° C | 71% | 1013.8 hPa | 0 mm | - | - | - |
| 1787505743 | 18.89° C | 69% | 1014 hPa | 0 mm | - | - | - |
| 1787505414 | 18.89° C | 70% | 1013.9 hPa | 0 mm | - | - | - |
| 1787505113 | 18.89° C | 69% | 1013.9 hPa | 0 mm | - | - | - |
| 1787504813 | 18.89° C | 70% | 1013.9 hPa | 0 mm | - | - | - |
| 1787504482 | 18.89° C | 70% | 1013.8 hPa | 0 mm | - | - | - |
| 1787504182 | 18.33° C | 70% | 1013.9 hPa | 0 mm | - | - | - |
| 1787503882 | 18.89° C | 69% | 1014 hPa | 0 mm | - | - | - |
| 1787503553 | 18.89° C | 67% | 1014 hPa | 0 mm | - | - | - |
| 1787503252 | 19.44° C | 67% | 1013.7 hPa | 0 mm | - | - | - |
| 1787502922 | 20° C | 64% | 1013.7 hPa | 0 mm | - | - | - |
| 1787502621 | 20° C | 62% | 1013.6 hPa | 0 mm | - | - | - |
| 1787502322 | 19.44° C | 66% | 1013.9 hPa | 0 mm | - | - | - |
| 1787502023 | 19.44° C | 65% | 1013.8 hPa | 0 mm | - | - | - |
| 1787501691 | 19.44° C | 67% | 1013.9 hPa | 0 mm | - | - | - |
| 1787501391 | 19.44° C | 66% | 1013.9 hPa | 0 mm | - | - | - |
| 1787501061 | 19.44° C | 65% | 1014.1 hPa | 0 mm | - | - | - |
| 1787500731 | 19.44° C | 65% | 1014.2 hPa | 0 mm | - | - | - |
| 1787500401 | 19.44° C | 63% | 1014.3 hPa | 0 mm | - | - | - |
| 1787500101 | 20° C | 64% | 1014.2 hPa | 0 mm | - | - | - |
| 1787499770 | 19.44° C | 67% | 1014 hPa | 0 mm | - | - | - |
| 1787499470 | 19.44° C | 67% | 1013.9 hPa | 0 mm | - | - | - |
| 1787499140 | 18.89° C | 69% | 1014 hPa | 0 mm | - | - | - |
* Rain latest hour (hover to see other rain measurements)
** Current wind speed in m/s (hover to see current wind gust speed)